Time;durP1;ratioP1;P1;durP2;ratioP2;P2;SDS_P1;SDS_P2;PMS_P1;PMS_P2;Temp;Humidity;BMP_temperature;BMP_pressure;BME280_temperature;BME280_humidity;BME280_pressure;Samples;Min_cycle;Max_cycle;Signal;HPM_P1;HPM_P2
2021/10/25 00:01:19;;;;;;;7.07;4.95;;;8.80;82.70;;;;;;5059563;28;20068;-90
2021/10/25 00:03:45;;;;;;;7.05;5.60;;;8.80;82.70;;;;;;5048932;28;20032;-88
2021/10/25 00:06:11;;;;;;;8.77;5.90;;;8.90;82.80;;;;;;5050468;28;20048;-89
2021/10/25 00:08:37;;;;;;;6.82;5.10;;;8.80;82.70;;;;;;5055041;28;20040;-87
2021/10/25 00:11:02;;;;;;;7.00;5.05;;;8.80;82.70;;;;;;5053905;28;20033;-88
2021/10/25 00:13:28;;;;;;;6.55;5.13;;;8.80;82.70;;;;;;5055327;28;20025;-90
2021/10/25 00:15:53;;;;;;;6.85;5.03;;;8.80;82.70;;;;;;5053086;28;20039;-88
2021/10/25 00:18:19;;;;;;;7.72;5.50;;;8.80;82.70;;;;;;5055105;28;20123;-87
2021/10/25 00:20:45;;;;;;;5.68;4.32;;;8.80;82.70;;;;;;5059204;28;20100;-91
2021/10/25 00:23:10;;;;;;;5.00;3.72;;;8.70;82.70;;;;;;5055474;28;20043;-91
2021/10/25 00:25:36;;;;;;;9.23;5.03;;;8.80;82.70;;;;;;5058981;28;20012;-92
2021/10/25 00:28:02;;;;;;;6.55;4.82;;;8.70;82.70;;;;;;5056672;28;20651;-90
2021/10/25 00:30:29;;;;;;;5.93;3.90;;;8.70;82.70;;;;;;5060755;28;20058;-88
2021/10/25 00:32:55;;;;;;;6.25;4.20;;;8.70;82.70;;;;;;5056347;28;20059;-89
2021/10/25 00:35:20;;;;;;;8.95;6.25;;;8.70;82.80;;;;;;5043464;28;20013;-90
2021/10/25 00:37:47;;;;;;;6.88;5.25;;;8.70;82.80;;;;;;5044091;28;20065;-89
2021/10/25 00:40:13;;;;;;;8.95;5.50;;;8.70;82.90;;;;;;5053351;28;20021;-88
2021/10/25 00:42:39;;;;;;;7.57;4.90;;;8.60;82.90;;;;;;5051187;28;20029;-87
2021/10/25 00:45:05;;;;;;;6.10;4.97;;;8.60;83.00;;;;;;5046820;28;20160;-86
2021/10/25 00:47:31;;;;;;;6.65;5.38;;;8.60;83.00;;;;;;5046281;28;20561;-87
2021/10/25 00:49:57;;;;;;;8.25;6.07;;;8.60;83.10;;;;;;5057054;28;20143;-86
2021/10/25 00:52:22;;;;;;;8.35;5.50;;;8.50;83.70;;;;;;5043506;28;20480;-87
2021/10/25 00:54:48;;;;;;;7.75;5.75;;;8.50;83.30;;;;;;5050948;28;20025;-86
2021/10/25 00:57:14;;;;;;;7.47;4.70;;;8.50;83.30;;;;;;5056364;28;20017;-87
2021/10/25 00:59:39;;;;;;;6.43;4.85;;;8.50;83.40;;;;;;5044596;28;20617;-85
2021/10/25 01:02:05;;;;;;;5.15;4.03;;;8.50;83.40;;;;;;5049276;28;20029;-87
2021/10/25 01:04:31;;;;;;;5.50;3.70;;;8.50;83.40;;;;;;5057109;28;20381;-87
2021/10/25 01:06:58;;;;;;;9.43;4.40;;;8.50;83.40;;;;;;5060376;28;20032;-87
2021/10/25 01:09:24;;;;;;;5.47;3.97;;;8.50;83.40;;;;;;5051456;28;20029;-88
2021/10/25 01:11:50;;;;;;;6.45;4.78;;;8.50;83.30;;;;;;5045500;28;20114;-88
2021/10/25 01:14:17;;;;;;;6.03;4.43;;;8.50;83.30;;;;;;5051801;28;20021;-88
2021/10/25 01:16:43;;;;;;;8.07;5.43;;;8.50;83.40;;;;;;5052493;28;20361;-89
2021/10/25 01:19:09;;;;;;;7.28;4.88;;;8.40;83.40;;;;;;5046391;28;20119;-88
2021/10/25 01:21:34;;;;;;;8.38;4.85;;;8.40;83.50;;;;;;5041198;28;20443;-86
2021/10/25 01:24:00;;;;;;;7.03;5.20;;;8.40;83.50;;;;;;5054699;28;20650;-86
2021/10/25 01:26:26;;;;;;;8.05;5.43;;;8.40;83.50;;;;;;5042803;28;20021;-87
2021/10/25 01:28:54;;;;;;;7.32;5.35;;;8.40;83.70;;;;;;5045472;28;20160;-90
2021/10/25 01:31:21;;;;;;;7.55;4.90;;;8.30;83.70;;;;;;5034261;28;20026;-89
2021/10/25 01:33:49;;;;;;;6.60;4.55;;;8.30;83.80;;;;;;5045697;28;21008;-87
2021/10/25 01:36:15;;;;;;;6.35;3.90;;;8.30;83.70;;;;;;5041905;28;20065;-86
2021/10/25 01:38:41;;;;;;;8.23;4.75;;;8.40;83.80;;;;;;5047325;28;20059;-86
2021/10/25 01:41:07;;;;;;;6.78;4.60;;;8.40;83.80;;;;;;5046770;28;20059;-85
2021/10/25 01:43:35;;;;;;;7.22;4.90;;;8.30;83.70;;;;;;5047175;28;20395;-85
2021/10/25 01:46:01;;;;;;;7.80;5.70;;;8.30;83.70;;;;;;5048735;28;20017;-88
2021/10/25 01:48:26;;;;;;;6.60;4.97;;;8.40;83.80;;;;;;5046977;28;20086;-89
2021/10/25 01:50:52;;;;;;;5.72;4.70;;;8.30;83.70;;;;;;5052096;28;20021;-86
2021/10/25 01:53:17;;;;;;;7.57;5.68;;;8.30;83.80;;;;;;5047016;28;20040;-89
2021/10/25 01:55:43;;;;;;;8.73;6.07;;;8.30;83.90;;;;;;5044586;28;20036;-88
2021/10/25 01:58:09;;;;;;;7.85;5.50;;;8.30;84.00;;;;;;5051593;28;20036;-89
2021/10/25 02:00:35;;;;;;;7.68;6.40;;;8.30;84.10;;;;;;5046932;28;20060;-89
2021/10/25 02:03:00;;;;;;;7.75;5.63;;;8.30;84.10;;;;;;5033130;28;20033;-89
2021/10/25 02:05:26;;;;;;;8.18;4.90;;;8.30;84.10;;;;;;5037722;28;20028;-86
2021/10/25 02:07:52;;;;;;;6.18;3.60;;;8.30;84.10;;;;;;5052128;28;20029;-87
2021/10/25 02:10:17;;;;;;;6.72;4.25;;;8.40;84.10;;;;;;5052239;28;20408;-87
2021/10/25 02:12:43;;;;;;;6.88;4.63;;;8.40;83.90;;;;;;5040245;28;20029;-89
2021/10/25 02:15:09;;;;;;;4.78;3.88;;;8.50;83.90;;;;;;5049713;28;20021;-89
2021/10/25 02:17:34;;;;;;;4.90;3.55;;;8.50;83.80;;;;;;5035872;28;20090;-89
2021/10/25 02:20:00;;;;;;;4.78;3.60;;;8.60;83.60;;;;;;5033433;28;20032;-89
2021/10/25 02:22:26;;;;;;;4.32;3.40;;;8.70;83.60;;;;;;5052196;28;20021;-88
2021/10/25 02:24:52;;;;;;;4.82;3.95;;;8.80;83.50;;;;;;5046817;28;20116;-89
2021/10/25 02:27:19;;;;;;;5.57;4.40;;;8.80;83.40;;;;;;5049265;28;20475;-85
2021/10/25 02:29:45;;;;;;;7.60;4.13;;;8.80;83.20;;;;;;5043074;28;20029;-85
2021/10/25 02:32:15;;;;;;;6.55;5.00;;;8.80;83.10;;;;;;5034065;28;20013;-87
2021/10/25 02:34:42;;;;;;;5.93;4.03;;;8.90;83.20;;;;;;5043341;28;20033;-88
2021/10/25 02:37:08;;;;;;;5.28;3.72;;;8.90;83.10;;;;;;5050814;28;20085;-87
2021/10/25 02:39:34;;;;;;;4.95;3.90;;;8.90;83.10;;;;;;5040187;28;20460;-88
2021/10/25 02:41:59;;;;;;;7.32;5.18;;;9.00;83.00;;;;;;5044532;28;20020;-84
2021/10/25 02:44:25;;;;;;;5.43;3.75;;;9.00;83.00;;;;;;5050132;28;20612;-89
2021/10/25 02:46:52;;;;;;;3.85;3.20;;;9.00;83.00;;;;;;5031951;28;20033;-85
2021/10/25 02:49:18;;;;;;;6.47;4.50;;;9.00;82.90;;;;;;5044203;28;20021;-85
2021/10/25 02:51:44;;;;;;;6.15;4.32;;;9.00;82.90;;;;;;5050436;28;20025;-90
2021/10/25 02:54:09;;;;;;;5.97;4.50;;;9.10;82.90;;;;;;5052864;28;20060;-90
2021/10/25 02:56:35;;;;;;;7.80;5.05;;;9.10;82.90;;;;;;5046974;28;20029;-89
2021/10/25 02:59:01;;;;;;;5.85;4.07;;;9.10;82.90;;;;;;5036884;28;20033;-91
2021/10/25 03:01:26;;;;;;;5.13;2.70;;;9.10;82.90;;;;;;5044992;28;20029;-89
2021/10/25 03:03:52;;;;;;;6.65;4.70;;;9.10;82.90;;;;;;5048221;28;20025;-88
2021/10/25 03:06:17;;;;;;;8.77;4.93;;;9.20;82.80;;;;;;5052700;28;20391;-87
2021/10/25 03:08:43;;;;;;;7.00;4.43;;;9.10;82.80;;;;;;5044810;28;20063;-85
2021/10/25 03:11:09;;;;;;;5.30;4.38;;;9.10;82.80;;;;;;5048953;28;20523;-84
2021/10/25 03:13:35;;;;;;;4.75;3.40;;;9.10;82.90;;;;;;5055103;28;20040;-90
2021/10/25 03:16:00;;;;;;;5.47;3.78;;;9.10;82.90;;;;;;5055873;28;20104;-90
2021/10/25 03:18:26;;;;;;;5.85;4.28;;;9.20;82.90;;;;;;5055936;28;20121;-90
2021/10/25 03:20:52;;;;;;;5.25;3.58;;;9.20;82.90;;;;;;5054435;28;20021;-91
2021/10/25 03:23:18;;;;;;;8.68;4.95;;;9.30;82.90;;;;;;5036251;28;20029;-88
2021/10/25 03:25:44;;;;;;;7.18;5.45;;;9.20;82.80;;;;;;5034751;28;20021;-89
2021/10/25 03:28:09;;;;;;;8.32;4.93;;;9.20;82.80;;;;;;5049144;28;20142;-88
2021/10/25 03:30:36;;;;;;;8.23;5.43;;;9.30;83.00;;;;;;5055391;28;20459;-89
2021/10/25 03:33:02;;;;;;;7.72;5.32;;;9.30;83.00;;;;;;5050105;28;20018;-88
2021/10/25 03:35:28;;;;;;;5.75;4.53;;;9.30;83.00;;;;;;5035827;28;20033;-90
2021/10/25 03:37:54;;;;;;;6.45;5.10;;;9.20;82.90;;;;;;5045387;28;20553;-91
2021/10/25 03:40:34;;;;;;;6.38;4.30;;;9.30;83.00;;;;;;5054850;28;20029;-87
2021/10/25 03:43:00;;;;;;;7.57;4.95;;;9.30;83.00;;;;;;5034166;28;20029;-87
2021/10/25 03:45:31;;;;;;;6.90;4.38;;;9.30;83.00;;;;;;5033824;28;20028;-86
2021/10/25 03:50:34;;;;;;;7.13;5.28;;;9.30;82.90;;;;;;5037518;28;20029;-89
2021/10/25 03:53:15;;;;;;;6.82;5.20;;;9.30;83.00;;;;;;5051702;28;20024;-87
2021/10/25 03:58:43;;;;;;;6.97;4.80;;;9.40;83.00;;;;;;5047392;28;20048;-87
2021/10/25 04:01:23;;;;;;;6.35;4.43;;;9.40;83.10;;;;;;5041466;28;20415;-86
2021/10/25 04:28:48;;;;;;;7.30;4.15;;;9.50;83.10;;;;;;5045848;28;20139;-84
2021/10/25 04:31:13;;;;;;;7.10;5.30;;;9.50;83.10;;;;;;5050647;28;20092;-84
2021/10/25 04:33:39;;;;;;;6.45;4.47;;;9.50;83.10;;;;;;5054654;28;20029;-89
2021/10/25 04:36:04;;;;;;;5.30;3.88;;;9.50;83.10;;;;;;5047001;28;20014;-90
2021/10/25 04:38:30;;;;;;;8.43;4.68;;;9.60;83.20;;;;;;5034440;28;20512;-89
2021/10/25 04:40:56;;;;;;;6.18;4.50;;;9.60;83.20;;;;;;5037096;28;20396;-87
2021/10/25 04:43:21;;;;;;;4.78;3.60;;;9.60;83.20;;;;;;5052196;28;20045;-84
2021/10/25 04:45:47;;;;;;;4.82;3.28;;;9.60;83.20;;;;;;5051103;28;20021;-85
2021/10/25 04:48:13;;;;;;;5.78;3.88;;;9.70;83.20;;;;;;5047395;28;20028;-87
2021/10/25 04:50:38;;;;;;;6.13;3.55;;;9.70;83.00;;;;;;5046665;28;20447;-87
2021/10/25 04:53:04;;;;;;;6.40;3.80;;;9.70;82.90;;;;;;5047006;28;20031;-87
2021/10/25 04:55:30;;;;;;;4.80;3.05;;;9.80;82.90;;;;;;5054201;28;20049;-89
2021/10/25 04:57:56;;;;;;;5.68;3.03;;;9.80;82.90;;;;;;5043200;28;20053;-89
2021/10/25 05:00:21;;;;;;;4.80;3.67;;;9.80;82.80;;;;;;5045309;28;20036;-88
2021/10/25 05:02:47;;;;;;;5.85;3.75;;;9.80;82.70;;;;;;5043129;28;20079;-88
2021/10/25 05:05:12;;;;;;;4.82;2.97;;;9.80;82.80;;;;;;5034271;28;20128;-88
2021/10/25 05:07:38;;;;;;;3.72;3.20;;;9.90;82.70;;;;;;5047567;28;20025;-85
2021/10/25 05:10:04;;;;;;;3.17;2.53;;;9.90;82.70;;;;;;5050669;28;20025;-87
2021/10/25 05:12:31;;;;;;;5.38;3.65;;;9.90;82.70;;;;;;5050177;28;20062;-87
2021/10/25 05:14:57;;;;;;;6.43;4.05;;;9.90;82.70;;;;;;5052323;28;20823;-87
2021/10/25 05:17:22;;;;;;;5.18;3.97;;;9.90;82.80;;;;;;5046442;28;20029;-87
2021/10/25 05:19:49;;;;;;;7.90;4.90;;;9.90;82.80;;;;;;5051231;28;20124;-86
2021/10/25 05:22:15;;;;;;;7.13;4.72;;;9.80;82.80;;;;;;5050289;28;20029;-84
2021/10/25 05:24:42;;;;;;;4.88;3.30;;;9.80;82.90;;;;;;5051689;28;20032;-88
2021/10/25 05:27:09;;;;;;;4.43;3.53;;;9.90;82.90;;;;;;5050562;28;20025;-85
2021/10/25 05:29:34;;;;;;;5.15;3.38;;;9.90;82.90;;;;;;5051691;28;20406;-88
2021/10/25 05:32:01;;;;;;;4.28;2.95;;;9.90;82.90;;;;;;5037430;28;20100;-86
2021/10/25 05:34:27;;;;;;;3.83;2.55;;;9.90;82.90;;;;;;5037768;28;20024;-93
2021/10/25 05:36:52;;;;;;;8.13;4.35;;;10.00;82.90;;;;;;5052997;28;20022;-86
2021/10/25 05:39:18;;;;;;;7.60;3.97;;;10.00;82.90;;;;;;5051650;28;20530;-90
2021/10/25 05:41:44;;;;;;;6.30;4.32;;;9.90;82.90;;;;;;5038166;28;20460;-87
2021/10/25 05:44:11;;;;;;;6.70;4.20;;;9.90;83.00;;;;;;5043547;28;20017;-86
2021/10/25 05:46:37;;;;;;;5.03;3.60;;;9.90;83.10;;;;;;5044809;28;20032;-85
2021/10/25 05:49:03;;;;;;;3.90;2.80;;;10.00;83.10;;;;;;5044920;28;20025;-90
2021/10/25 05:51:30;;;;;;;5.25;3.33;;;10.00;83.10;;;;;;5039833;28;20017;-86
2021/10/25 05:53:58;;;;;;;6.82;4.32;;;10.00;83.00;;;;;;5051664;28;20060;-85
2021/10/25 05:56:24;;;;;;;4.95;3.60;;;10.00;83.10;;;;;;5044201;28;20024;-83
2021/10/25 05:58:50;;;;;;;5.10;3.00;;;10.00;83.10;;;;;;5046187;28;20040;-85
2021/10/25 06:01:19;;;;;;;3.80;2.92;;;10.10;83.20;;;;;;5040365;28;20022;-85
2021/10/25 06:03:47;;;;;;;5.78;3.53;;;10.10;83.10;;;;;;5050281;28;20032;-87
2021/10/25 06:06:13;;;;;;;6.70;3.92;;;10.10;83.10;;;;;;5043732;28;20164;-87
2021/10/25 06:08:40;;;;;;;6.28;4.55;;;10.10;83.20;;;;;;5049936;28;20043;-82
2021/10/25 06:11:07;;;;;;;5.20;3.70;;;10.10;83.30;;;;;;5047340;28;20104;-81
2021/10/25 06:13:37;;;;;;;5.88;3.88;;;10.10;83.40;;;;;;5040966;28;20034;-85
2021/10/25 06:16:10;;;;;;;6.72;4.20;;;10.10;83.50;;;;;;5050135;28;20044;-81
2021/10/25 06:18:36;;;;;;;5.25;3.60;;;10.10;83.40;;;;;;5049679;28;20048;-82
2021/10/25 06:21:02;;;;;;;3.67;2.92;;;10.10;83.50;;;;;;5050675;28;20071;-82
2021/10/25 06:23:28;;;;;;;4.65;2.90;;;10.10;83.40;;;;;;5050561;28;20438;-82
2021/10/25 06:25:54;;;;;;;7.18;4.65;;;10.10;83.50;;;;;;5050115;28;20029;-81
2021/10/25 06:28:23;;;;;;;6.70;4.70;;;10.10;83.60;;;;;;5049630;28;20055;-80
2021/10/25 06:30:55;;;;;;;6.72;4.03;;;10.10;83.70;;;;;;5043163;28;20017;-80
2021/10/25 06:33:22;;;;;;;6.57;3.92;;;10.10;83.80;;;;;;5034588;28;20112;-85
2021/10/25 06:35:57;;;;;;;5.80;3.38;;;10.10;83.80;;;;;;5036591;28;20455;-83
2021/10/25 06:38:25;;;;;;;4.30;3.40;;;10.10;83.70;;;;;;5047595;28;20480;-85
2021/10/25 06:40:50;;;;;;;6.40;4.00;;;10.10;83.60;;;;;;5044722;28;20108;-82
2021/10/25 06:43:16;;;;;;;5.07;3.42;;;10.20;83.60;;;;;;5047991;28;20056;-78
2021/10/25 06:45:41;;;;;;;5.45;3.15;;;10.20;83.50;;;;;;5046248;28;20036;-78
2021/10/25 06:48:07;;;;;;;5.80;4.05;;;10.20;83.40;;;;;;5040423;28;20021;-79
2021/10/25 06:50:39;;;;;;;4.82;3.30;;;10.30;83.40;;;;;;5031533;28;20021;-78
2021/10/25 06:53:06;;;;;;;5.28;3.47;;;10.30;83.60;;;;;;5034594;28;20017;-78
2021/10/25 06:55:40;;;;;;;6.13;4.38;;;10.30;83.20;;;;;;5046412;28;20025;-86
2021/10/25 06:58:06;;;;;;;3.95;3.13;;;10.40;83.10;;;;;;5041689;28;20044;-87
2021/10/25 07:00:31;;;;;;;7.90;4.72;;;10.40;83.10;;;;;;5049875;28;20037;-91
2021/10/25 07:02:57;;;;;;;8.65;4.28;;;10.40;83.00;;;;;;5051934;28;20024;-86
2021/10/25 07:05:22;;;;;;;5.57;3.75;;;10.40;83.00;;;;;;5050880;28;20453;-82
2021/10/25 07:07:48;;;;;;;6.35;3.58;;;10.40;82.90;;;;;;5050300;28;20543;-86
2021/10/25 07:10:13;;;;;;;6.95;4.80;;;10.50;82.80;;;;;;5048254;28;20064;-84
2021/10/25 07:12:39;;;;;;;5.15;3.78;;;10.50;82.70;;;;;;5049054;28;20128;-85
2021/10/25 07:15:09;;;;;;;5.28;3.75;;;10.50;82.60;;;;;;5051845;28;20017;-88
2021/10/25 07:20:32;;;;;;;3.95;3.05;;;10.60;82.60;;;;;;5052525;28;20061;-92
2021/10/25 08:09:49;;;;;;;7.75;4.82;;;10.90;82.90;;;;;;5047016;28;20041;-85
2021/10/25 08:12:19;;;;;;;5.57;4.28;;;10.80;82.90;;;;;;5043238;28;20537;-85
2021/10/25 08:14:54;;;;;;;6.75;4.45;;;10.90;83.00;;;;;;5042770;28;20056;-84
2021/10/25 08:17:22;;;;;;;4.78;3.80;;;10.80;82.80;;;;;;5041163;28;20025;-84
2021/10/25 08:19:49;;;;;;;5.57;3.90;;;10.90;82.90;;;;;;5039013;28;20039;-84
2021/10/25 08:22:16;;;;;;;7.55;3.90;;;10.90;82.80;;;;;;5042918;28;20086;-86
2021/10/25 08:24:51;;;;;;;5.60;4.25;;;11.00;82.70;;;;;;5043411;28;20021;-83
2021/10/25 08:27:18;;;;;;;5.88;4.43;;;11.00;82.60;;;;;;5048445;28;20056;-84
2021/10/25 08:29:46;;;;;;;5.25;3.90;;;11.00;82.50;;;;;;5041838;28;20081;-83
2021/10/25 08:32:40;;;;;;;5.20;3.92;;;11.00;82.40;;;;;;5044836;28;20021;-87
2021/10/25 08:40:22;;;;;;;5.53;3.15;;;11.10;82.20;;;;;;5045129;28;20060;-83
2021/10/25 08:42:48;;;;;;;3.63;2.75;;;11.20;82.10;;;;;;5037934;28;20047;-83
2021/10/25 08:45:22;;;;;;;4.55;3.50;;;11.20;82.00;;;;;;5041920;28;20519;-83
2021/10/25 08:47:50;;;;;;;6.57;4.13;;;11.20;81.90;;;;;;5045695;28;20025;-81
2021/10/25 08:50:19;;;;;;;5.57;4.30;;;11.20;81.80;;;;;;5041176;28;20032;-81
2021/10/25 08:52:46;;;;;;;5.70;3.80;;;11.30;81.70;;;;;;5039845;28;20026;-81
2021/10/25 08:55:16;;;;;;;5.32;3.30;;;11.30;81.70;;;;;;5041182;28;20107;-81
2021/10/25 08:57:42;;;;;;;5.60;3.45;;;11.30;81.60;;;;;;5046676;28;20029;-86
2021/10/25 09:00:11;;;;;;;4.80;3.80;;;11.40;81.50;;;;;;5049253;28;20186;-86
2021/10/25 09:02:40;;;;;;;7.43;4.38;;;11.30;81.30;;;;;;5045932;28;20025;-86
2021/10/25 09:05:11;;;;;;;7.72;3.97;;;11.30;81.30;;;;;;5045680;28;20032;-85
2021/10/25 09:08:00;;;;;;;5.95;3.95;;;11.30;81.30;;;;;;5042305;28;20597;-87
2021/10/25 09:10:39;;;;;;;6.82;4.75;;;11.30;81.20;;;;;;5042799;28;20029;-87
2021/10/25 09:13:11;;;;;;;7.18;4.60;;;11.30;81.70;;;;;;5036089;28;20033;-83
2021/10/25 09:15:40;;;;;;;6.40;3.95;;;11.40;81.10;;;;;;5040139;28;20022;-87
2021/10/25 09:18:12;;;;;;;5.00;4.05;;;11.40;81.00;;;;;;5047726;28;20033;-85
2021/10/25 09:20:59;;;;;;;4.80;3.67;;;11.40;81.00;;;;;;5053294;28;20028;-84
2021/10/25 09:23:30;;;;;;;4.20;3.40;;;11.50;81.00;;;;;;5048240;28;20135;-84
2021/10/25 09:26:00;;;;;;;5.30;4.07;;;11.50;81.00;;;;;;5045896;28;20030;-82
2021/10/25 09:28:30;;;;;;;16.73;11.35;;;11.60;80.90;;;;;;5051122;28;20029;-85
2021/10/25 09:31:02;;;;;;;9.73;7.15;;;11.60;80.90;;;;;;5049313;28;20022;-84
2021/10/25 09:33:38;;;;;;;7.93;6.00;;;11.60;80.80;;;;;;5042599;28;20061;-87
2021/10/25 09:36:10;;;;;;;5.47;4.30;;;11.60;80.70;;;;;;5050352;28;20808;-94
2021/10/25 09:49:32;;;;;;;6.50;3.88;;;11.70;80.80;;;;;;5049654;28;20047;-81
2021/10/25 09:51:59;;;;;;;9.45;5.53;;;11.70;80.90;;;;;;5047768;28;20462;-82
2021/10/25 09:54:28;;;;;;;6.82;4.60;;;11.70;80.80;;;;;;5050265;28;20016;-83
2021/10/25 09:57:03;;;;;;;7.97;4.95;;;11.70;80.80;;;;;;5037394;28;20111;-85
2021/10/25 09:59:48;;;;;;;7.18;4.78;;;11.80;80.80;;;;;;5047353;28;20402;-81
2021/10/25 10:02:15;;;;;;;6.32;4.80;;;11.80;80.80;;;;;;5054712;28;20029;-85
2021/10/25 10:04:44;;;;;;;5.53;4.28;;;11.80;80.70;;;;;;5051520;28;20471;-86
2021/10/25 10:07:16;;;;;;;6.85;3.80;;;11.90;80.60;;;;;;5046462;28;20029;-86
2021/10/25 10:09:44;;;;;;;6.55;4.43;;;12.00;80.60;;;;;;5039931;28;20017;-82
2021/10/25 10:12:15;;;;;;;7.30;5.03;;;12.00;80.50;;;;;;5053502;28;20172;-87
2021/10/25 10:14:42;;;;;;;7.05;4.43;;;12.00;80.50;;;;;;5053126;28;20025;-83
2021/10/25 10:17:08;;;;;;;7.13;4.05;;;12.00;80.60;;;;;;5043853;28;20033;-89
2021/10/25 10:19:34;;;;;;;4.53;3.63;;;12.00;80.60;;;;;;5044355;28;20030;-92
2021/10/25 10:22:03;;;;;;;7.45;5.10;;;12.00;80.60;;;;;;5055214;28;20024;-88
2021/10/25 10:24:31;;;;;;;6.35;4.00;;;12.00;80.60;;;;;;5051380;28;20040;-87
2021/10/25 10:26:59;;;;;;;7.53;4.45;;;12.00;80.60;;;;;;5051132;28;20021;-86
2021/10/25 10:29:25;;;;;;;6.50;4.22;;;12.00;80.60;;;;;;5042530;28;20063;-85
2021/10/25 10:31:59;;;;;;;6.47;3.55;;;12.10;80.70;;;;;;5044411;28;20060;-87
2021/10/25 10:34:24;;;;;;;4.47;3.47;;;12.10;80.70;;;;;;5050298;28;20479;-87
2021/10/25 10:36:55;;;;;;;4.13;2.92;;;12.10;80.60;;;;;;5048269;28;20029;-86
2021/10/25 10:39:27;;;;;;;5.72;4.20;;;12.20;80.60;;;;;;5050157;28;20084;-86
2021/10/25 10:41:58;;;;;;;5.30;3.87;;;12.20;80.50;;;;;;5053662;28;20464;-88
2021/10/25 10:44:29;;;;;;;6.57;4.43;;;12.30;80.50;;;;;;5036737;28;20299;-88
2021/10/25 10:47:01;;;;;;;7.10;4.82;;;12.30;80.30;;;;;;5046468;28;20040;-87
2021/10/25 10:49:41;;;;;;;;;;;12.30;80.20;;;;;;5045588;28;20116;-88
2021/10/25 10:52:44;;;;;;;6.70;4.03;;;12.30;80.10;;;;;;5045651;28;19924;-85
2021/10/25 10:55:19;;;;;;;5.32;4.03;;;12.30;80.20;;;;;;5040047;28;20057;-87
2021/10/25 10:58:40;;;;;;;4.30;3.15;;;12.40;80.20;;;;;;5043054;28;20071;-87
2021/10/25 11:01:08;;;;;;;6.25;4.43;;;12.40;80.20;;;;;;5038769;28;20495;-88
2021/10/25 11:03:36;;;;;;;6.90;4.72;;;12.50;80.10;;;;;;5038163;28;20036;-91
2021/10/25 11:06:04;;;;;;;6.07;3.92;;;12.50;80.10;;;;;;5045058;28;20025;-86
2021/10/25 11:08:32;;;;;;;7.05;4.50;;;12.50;80.10;;;;;;5044177;28;20472;-85
2021/10/25 11:11:07;;;;;;;4.85;3.65;;;12.50;80.00;;;;;;5047737;28;20116;-81
2021/10/25 11:13:41;;;;;;;5.38;2.97;;;12.60;80.10;;;;;;5048308;28;20111;-83
2021/10/25 11:16:23;;;;;;;4.45;2.97;;;12.70;80.00;;;;;;5043456;28;20410;-80
2021/10/25 11:18:52;;;;;;;5.63;3.90;;;12.80;79.90;;;;;;5044071;28;20037;-81
2021/10/25 11:21:18;;;;;;;8.00;4.90;;;12.90;79.70;;;;;;5048979;28;20026;-80
2021/10/25 11:23:51;;;;;;;5.95;4.22;;;12.90;79.50;;;;;;5046463;28;20062;-81
2021/10/25 11:26:34;;;;;;;5.90;4.30;;;12.90;79.50;;;;;;5046070;28;20017;-81
2021/10/25 11:29:04;;;;;;;5.35;3.78;;;12.90;79.40;;;;;;5054566;28;20039;-80
2021/10/25 11:31:33;;;;;;;8.73;4.93;;;12.90;79.30;;;;;;5054890;28;20163;-81
2021/10/25 11:34:00;;;;;;;5.50;3.70;;;12.90;79.50;;;;;;5051606;28;20040;-84
2021/10/25 11:36:29;;;;;;;6.00;4.95;;;12.90;79.60;;;;;;5059180;28;20503;-85
2021/10/25 11:38:57;;;;;;;9.35;4.80;;;12.90;79.40;;;;;;5051388;28;20025;-83
2021/10/25 11:41:23;;;;;;;6.18;4.43;;;12.90;79.50;;;;;;5048354;28;20021;-91
2021/10/25 11:43:49;;;;;;;21.00;13.23;;;13.00;79.60;;;;;;5048883;28;20029;-89
2021/10/25 11:46:20;;;;;;;9.85;7.30;;;13.10;79.40;;;;;;5057843;28;20075;-88
2021/10/25 11:48:58;;;;;;;7.43;5.43;;;13.20;79.30;;;;;;5064698;28;20631;-89
2021/10/25 11:51:25;;;;;;;9.70;5.32;;;13.20;79.10;;;;;;5063065;28;20067;-87
2021/10/25 11:53:57;;;;;;;8.25;5.32;;;13.20;78.90;;;;;;5046599;28;20056;-86
2021/10/25 11:56:24;;;;;;;6.68;4.45;;;13.30;78.90;;;;;;5055647;28;20079;-91
2021/10/25 11:58:50;;;;;;;8.27;4.85;;;13.30;78.90;;;;;;5044471;28;20456;-90
2021/10/25 12:01:16;;;;;;;5.97;4.93;;;13.30;78.80;;;;;;5055302;28;20422;-88
2021/10/25 12:03:42;;;;;;;5.13;3.72;;;13.30;78.80;;;;;;5056065;28;20053;-87
2021/10/25 12:06:19;;;;;;;4.75;3.35;;;13.30;79.00;;;;;;5056090;28;20139;-88
2021/10/25 12:08:57;;;;;;;5.88;3.97;;;13.40;79.00;;;;;;5038607;28;20112;-89
2021/10/25 12:11:36;;;;;;;6.65;5.00;;;13.40;78.90;;;;;;5059064;28;20025;-93
2021/10/25 12:14:02;;;;;;;5.25;4.20;;;13.40;78.60;;;;;;5058835;28;20029;-87
2021/10/25 12:16:28;;;;;;;5.80;3.72;;;13.50;78.70;;;;;;5056047;28;20033;-87
2021/10/25 12:18:54;;;;;;;5.80;3.80;;;13.60;78.60;;;;;;5052919;28;20142;-88
2021/10/25 12:21:30;;;;;;;6.38;3.97;;;13.80;78.40;;;;;;5045272;28;20384;-86
2021/10/25 12:23:56;;;;;;;6.80;4.50;;;13.90;78.20;;;;;;5053724;28;20039;-88
2021/10/25 12:26:22;;;;;;;7.88;5.20;;;13.90;78.00;;;;;;5054988;28;20120;-92
2021/10/25 12:28:47;;;;;;;7.35;4.97;;;13.90;78.00;;;;;;5062104;28;20067;-90
2021/10/25 12:31:16;;;;;;;4.75;3.55;;;13.90;78.10;;;;;;5059826;28;20084;-94
2021/10/25 12:34:01;;;;;;;5.22;3.30;;;14.00;78.10;;;;;;5051920;28;20494;-93
2021/10/25 12:36:35;;;;;;;5.32;4.00;;;14.30;77.90;;;;;;5050634;28;20058;-89
2021/10/25 12:39:05;;;;;;;7.80;4.40;;;14.50;77.50;;;;;;5052807;28;20135;-90
2021/10/25 12:41:48;;;;;;;6.70;4.55;;;14.50;77.80;;;;;;5055094;28;20052;-89
2021/10/25 12:44:31;;;;;;;6.00;4.28;;;14.60;77.00;;;;;;5053248;28;20028;-88
2021/10/25 12:47:21;;;;;;;8.65;4.70;;;14.60;76.80;;;;;;5046251;28;20796;-90
2021/10/25 12:49:54;;;;;;;6.25;4.10;;;14.70;76.50;;;;;;5051360;28;20081;-87
2021/10/25 12:52:20;;;;;;;5.68;3.72;;;14.70;76.40;;;;;;5049697;28;20090;-90
2021/10/25 12:54:46;;;;;;;6.70;4.47;;;14.90;76.50;;;;;;5066059;28;20115;-86
2021/10/25 12:57:29;;;;;;;4.80;3.88;;;15.00;76.20;;;;;;5056132;28;20044;-89
2021/10/25 13:00:17;;;;;;;9.00;5.07;;;15.10;75.80;;;;;;5049562;28;20377;-87
2021/10/25 13:02:54;;;;;;;6.40;5.00;;;15.00;75.40;;;;;;5051575;28;20028;-83
2021/10/25 13:05:32;;;;;;;6.20;4.35;;;15.00;75.50;;;;;;5055704;28;20361;-86
2021/10/25 13:08:00;;;;;;;4.78;3.92;;;15.00;75.60;;;;;;5043550;28;20059;-81
2021/10/25 13:10:31;;;;;;;8.88;5.00;;;14.90;75.40;;;;;;5055672;28;20053;-83
2021/10/25 13:12:59;;;;;;;8.27;6.93;;;15.00;75.40;;;;;;5050257;28;20032;-81
2021/10/25 13:15:25;;;;;;;4.90;3.60;;;14.90;75.60;;;;;;5055525;28;20036;-82
2021/10/25 13:17:52;;;;;;;5.05;3.05;;;14.90;75.70;;;;;;5058924;28;20422;-81
2021/10/25 13:20:21;;;;;;;5.88;4.40;;;14.90;75.90;;;;;;5052893;28;20033;-82
2021/10/25 13:22:48;;;;;;;3.97;3.33;;;14.80;76.10;;;;;;5050235;28;20068;-82
2021/10/25 13:25:14;;;;;;;6.70;4.45;;;14.90;76.20;;;;;;5051725;28;20035;-81
2021/10/25 13:27:40;;;;;;;4.07;3.17;;;14.90;76.10;;;;;;5047317;28;20103;-82
2021/10/25 13:30:07;;;;;;;6.78;5.70;;;14.80;76.20;;;;;;5042047;28;20048;-82
2021/10/25 13:32:33;;;;;;;4.63;3.80;;;14.80;76.30;;;;;;5057214;28;20021;-81
2021/10/25 13:34:59;;;;;;;4.47;3.72;;;14.80;76.40;;;;;;5046321;28;20491;-81
2021/10/25 13:37:24;;;;;;;5.85;3.78;;;14.80;76.40;;;;;;5050201;28;20593;-82
2021/10/25 13:39:50;;;;;;;7.32;3.60;;;14.80;76.40;;;;;;5055911;28;20032;-81
2021/10/25 13:42:16;;;;;;;7.32;4.97;;;14.80;76.40;;;;;;5051647;28;20127;-84
2021/10/25 13:44:44;;;;;;;6.15;4.72;;;14.70;76.40;;;;;;5054049;28;20035;-80
2021/10/25 13:47:10;;;;;;;4.55;3.53;;;14.70;76.50;;;;;;5055614;28;20025;-82
2021/10/25 13:49:36;;;;;;;6.82;4.72;;;14.70;76.60;;;;;;5052755;28;20013;-80
2021/10/25 13:52:02;;;;;;;5.65;3.58;;;14.70;76.80;;;;;;5054043;28;20035;-81
2021/10/25 13:54:30;;;;;;;6.10;4.78;;;14.70;76.90;;;;;;5049265;28;20040;-81
2021/10/25 13:56:56;;;;;;;6.40;4.07;;;14.60;76.70;;;;;;5046542;28;20074;-80
2021/10/25 13:59:23;;;;;;;5.35;3.95;;;14.60;76.80;;;;;;5056093;28;20372;-82
2021/10/25 14:01:48;;;;;;;4.70;3.53;;;14.60;76.80;;;;;;5043636;28;20390;-78
2021/10/25 14:04:17;;;;;;;6.00;3.60;;;14.70;76.90;;;;;;5029341;28;20051;-79
2021/10/25 14:06:43;;;;;;;4.63;3.47;;;14.70;76.80;;;;;;5048172;28;20045;-81
2021/10/25 14:09:09;;;;;;;6.07;4.03;;;14.80;76.80;;;;;;5047428;28;20655;-81
2021/10/25 14:11:42;;;;;;;5.68;3.97;;;14.80;76.60;;;;;;5040435;28;20040;-83
2021/10/25 14:14:12;;;;;;;4.00;3.47;;;14.80;76.60;;;;;;5055014;28;20036;-82
2021/10/25 14:16:56;;;;;;;4.18;3.33;;;15.00;76.70;;;;;;5048492;28;20557;-83
2021/10/25 14:19:25;;;;;;;5.22;3.72;;;15.00;76.60;;;;;;5051596;28;20387;-82
2021/10/25 14:21:51;;;;;;;4.38;3.42;;;15.00;76.40;;;;;;5049617;28;20017;-81
2021/10/25 14:24:18;;;;;;;5.97;3.50;;;15.00;76.40;;;;;;5050972;28;20041;-83
2021/10/25 14:26:43;;;;;;;5.22;3.65;;;15.10;76.40;;;;;;5052310;28;20031;-81
2021/10/25 14:29:09;;;;;;;4.60;3.00;;;15.10;76.50;;;;;;5043013;28;20021;-80
2021/10/25 14:31:41;;;;;;;4.95;3.85;;;15.00;76.40;;;;;;5055454;28;20618;-84
2021/10/25 14:34:07;;;;;;;5.00;3.35;;;14.90;76.50;;;;;;5061284;28;20029;-81